• Join FlightAware (Why Join?)
  • Login
  • US Flag 
06:41AM EST


 

Airport Tracker/Info


-or-


 

Live Flight TrackerFlight Track Log ✈ EGF4269 ✈ 27-Apr-2013 ✈ KORD - KAZO

Flight Track Log - Related Links

Times and Time Zones

All times are in EDT time to prevent confusion due to time zone crossing. See the EGF4269 flight status page for this flight to view local times or setup timezone preferences in your user account.

Time Position Orientation Groundspeed Altitude Reporting Facility
EDT Latitude Longitude Course Direction KTS MPH feet Rate Location/Type
08:31PM 42.0011 -87.8706 77° East 158 182 15,000  Level Chicago Center
08:32PM 42.0042 -87.8111 86° East 197 227 3,500 -4,260 Descending Chicago Center
08:33PM 42.0361 -87.5197 83° East  Level FlightAware Approximate
08:33PM 42.0111 -87.7097 85° East 225 259 6,400  Level Chicago Center
08:34PM 42.0481 -87.3876 83° East  Level FlightAware Approximate
08:34PM 42.0242 -87.6200 79° East 245 282 8,600  Level Chicago Center
08:35PM 42.0669 -87.2571 78° East  Level FlightAware Approximate
08:35PM 42.0411 -87.5228 77° East 265 305 10,800  Level Chicago Center
08:36PM 42.0872 -87.1268 77° East  Level FlightAware Approximate
08:36PM 42.0597 -87.4228 76° East 275 316 13,000  Level Chicago Center
08:37PM 42.0750 -87.3111 80° East 302 348 13,800 780 Climbing Chicago Center
08:38PM 42.0942 -87.1856 78° East 339 390 14,600 540 Climbing Chicago Center
08:39PM 42.1139 -87.0486 79° East 369 425 15,000 240 Climbing Chicago Center
08:40PM 42.1175 -86.9019 88° East 388 447 15,100 -300 Climbing Chicago Center
08:41PM 42.1233 -86.7603 87° East 383 441 14,400 -1,260 Descending Chicago Center
08:42PM 42.1289 -86.5903 87° East 390 449 12,600 -1,500 Descending Chicago Center
08:43PM 42.1336 -86.4494 87° East 381 438 11,400 -840 Descending Chicago Center
08:44PM 42.1381 -86.3103 87° East 374 430 11,000 -540 Descending Chicago Center
08:45PM 42.1419 -86.1819 88° East 350 403 10,300 -960 Descending Chicago Center
08:46PM 42.1511 -86.0733 83° East 299 344 9,100 -1,560 Descending Chicago Center
08:47PM 42.1672 -85.9742 78° East 275 316 7,200 -1,920 Descending Chicago Center
08:48PM 42.1950 -85.8817 68° East 267 307 5,300 -1,920 Descending Chicago Center